createdAt,value
2019-01-24T00:00:07.303Z,-3.01
2019-01-24T00:02:34.370Z,-2.99
2019-01-24T00:05:01.440Z,-3.01
2019-01-24T00:07:28.484Z,-2.99
2019-01-24T00:09:55.519Z,-3.02
2019-01-24T00:12:22.556Z,-3.07
2019-01-24T00:14:49.610Z,-3.09
2019-01-24T00:17:16.649Z,-3.08
2019-01-24T00:19:43.730Z,-3.09
2019-01-24T00:22:10.768Z,-3.10
2019-01-24T00:24:37.801Z,-3.10
2019-01-24T00:27:04.835Z,-3.10
2019-01-24T00:29:31.870Z,-3.12
2019-01-24T00:31:58.909Z,-3.15
2019-01-24T00:34:25.967Z,-3.23
2019-01-24T00:36:53.001Z,-3.27
2019-01-24T00:39:20.035Z,-3.29
2019-01-24T00:41:47.071Z,-3.25
2019-01-24T00:44:14.109Z,-3.22
2019-01-24T00:46:41.173Z,-3.24
2019-01-24T00:49:08.207Z,-3.25
2019-01-24T00:51:35.239Z,-3.25
2019-01-24T00:54:02.255Z,-3.26
2019-01-24T00:56:29.313Z,-3.25
2019-01-24T00:58:56.349Z,-3.21
2019-01-24T01:01:23.390Z,-3.14
2019-01-24T01:03:50.443Z,-3.10
2019-01-24T01:06:17.474Z,-3.13
2019-01-24T01:08:44.519Z,-3.14
2019-01-24T01:11:11.577Z,-3.18
2019-01-24T01:13:38.599Z,-3.17
2019-01-24T01:16:05.665Z,-3.17
2019-01-24T01:18:32.710Z,-3.17
2019-01-24T01:20:59.793Z,-3.17
2019-01-24T01:23:26.858Z,-3.22
2019-01-24T01:25:53.913Z,-3.24
2019-01-24T01:28:20.945Z,-3.19
2019-01-24T01:30:48.005Z,-3.17
2019-01-24T01:33:15.062Z,-3.18
2019-01-24T01:35:42.078Z,-3.19
2019-01-24T01:38:09.113Z,-3.16
2019-01-24T01:40:36.146Z,-3.11
2019-01-24T01:43:03.310Z,-3.05
2019-01-24T01:45:30.350Z,-3.03
2019-01-24T01:47:57.414Z,-3.03
2019-01-24T01:50:24.455Z,-3.04
2019-01-24T01:52:51.545Z,-3.07
2019-01-24T01:55:18.538Z,-3.08
2019-01-24T01:57:45.698Z,-3.14
2019-01-24T02:00:15.532Z,-3.14
2019-01-24T02:02:42.553Z,-3.12
2019-01-24T02:05:10.030Z,-3.14
2019-01-24T02:07:37.073Z,-3.15
2019-01-24T02:10:06.308Z,-3.18
2019-01-24T02:12:33.340Z,-3.17
2019-01-24T02:15:00.405Z,-3.21
2019-01-24T02:17:27.457Z,-3.20
2019-01-24T02:19:54.537Z,-3.20
2019-01-24T02:22:21.584Z,-3.19
2019-01-24T02:24:48.604Z,-3.23
2019-01-24T02:27:15.650Z,-3.23
2019-01-24T02:29:42.683Z,-3.21
2019-01-24T02:32:09.714Z,-3.19
2019-01-24T02:34:36.749Z,-3.17
2019-01-24T02:37:03.786Z,-3.19
2019-01-24T02:39:30.824Z,-3.15
2019-01-24T02:41:57.873Z,-3.13
2019-01-24T02:44:24.916Z,-3.18
2019-01-24T02:46:51.963Z,-3.19
2019-01-24T02:49:18.980Z,-3.16
2019-01-24T02:51:46.008Z,-3.15
2019-01-24T02:54:13.041Z,-3.13
2019-01-24T02:56:40.065Z,-3.11
2019-01-24T02:59:07.118Z,-3.11
2019-01-24T03:01:34.163Z,-3.08
2019-01-24T03:04:01.215Z,-3.07
2019-01-24T03:06:28.259Z,-3.07
2019-01-24T03:08:55.331Z,-3.07
2019-01-24T03:11:22.355Z,-3.06
2019-01-24T03:13:49.405Z,-3.06
2019-01-24T03:16:16.445Z,-3.04
2019-01-24T03:18:43.499Z,-3.02
2019-01-24T03:21:10.558Z,-3.01
2019-01-24T03:23:37.636Z,-3.03
2019-01-24T03:26:04.695Z,-3.04
2019-01-24T03:28:31.739Z,-3.03
2019-01-24T03:30:58.789Z,-3.06
2019-01-24T03:33:25.847Z,-3.08
2019-01-24T03:35:52.882Z,-3.07
2019-01-24T03:38:19.932Z,-3.06
2019-01-24T03:40:46.979Z,-3.04
2019-01-24T03:43:14.031Z,-3.03
2019-01-24T03:45:41.066Z,-3.02
2019-01-24T03:48:08.105Z,-3.03
2019-01-24T03:50:35.131Z,-3.06
2019-01-24T03:53:02.176Z,-3.09
2019-01-24T03:55:29.240Z,-3.11
2019-01-24T03:57:56.246Z,-3.10
2019-01-24T04:00:23.959Z,-3.09
2019-01-24T04:02:50.991Z,-3.11
2019-01-24T04:05:18.265Z,-3.14
2019-01-24T04:07:45.305Z,-3.12
2019-01-24T04:10:16.435Z,-3.09
2019-01-24T04:12:43.558Z,-3.09
2019-01-24T04:15:12.348Z,-3.05
2019-01-24T04:17:39.376Z,-3.05
2019-01-24T04:20:06.755Z,-3.10
2019-01-24T04:22:33.828Z,-3.18
2019-01-24T04:25:00.865Z,-3.27
2019-01-24T04:27:27.922Z,-3.33
2019-01-24T04:29:54.967Z,-3.38
2019-01-24T04:32:22.028Z,-3.39
2019-01-24T04:34:49.090Z,-3.39
2019-01-24T04:37:16.138Z,-3.38
2019-01-24T04:39:43.165Z,-3.35
2019-01-24T04:42:10.188Z,-3.28
2019-01-24T04:44:37.214Z,-3.29
2019-01-24T04:47:04.267Z,-3.32
2019-01-24T04:49:31.332Z,-3.35
2019-01-24T04:51:58.383Z,-3.30
2019-01-24T04:54:25.483Z,-3.24
2019-01-24T04:56:52.538Z,-3.19
2019-01-24T04:59:19.607Z,-3.17
2019-01-24T05:01:46.633Z,-3.13
2019-01-24T05:04:13.683Z,-3.11
2019-01-24T05:06:40.733Z,-3.12
2019-01-24T05:09:07.768Z,-3.19
2019-01-24T05:11:34.791Z,-3.25
2019-01-24T05:14:01.845Z,-3.29
2019-01-24T05:16:28.902Z,-3.29
2019-01-24T05:18:55.936Z,-3.31
2019-01-24T05:21:23.027Z,-3.30
2019-01-24T05:23:50.048Z,-3.27
2019-01-24T05:26:17.117Z,-3.22
2019-01-24T05:28:44.149Z,-3.19
2019-01-24T05:31:11.188Z,-3.17
2019-01-24T05:33:38.243Z,-3.19
2019-01-24T05:36:05.268Z,-3.17
2019-01-24T05:38:32.538Z,-3.15
2019-01-24T05:40:59.557Z,-3.13
2019-01-24T05:43:26.629Z,-3.10
2019-01-24T05:45:53.664Z,-3.09
2019-01-24T05:48:20.726Z,-3.06
2019-01-24T05:50:47.977Z,-3.04
2019-01-24T05:53:15.089Z,-3.03
2019-01-24T05:55:42.141Z,-2.79
2019-01-24T05:58:09.188Z,-1.57
2019-01-24T06:00:39.118Z,-0.55
2019-01-24T06:03:06.181Z,0.25
2019-01-24T06:05:33.271Z,0.69
2019-01-24T06:08:00.313Z,0.75
2019-01-24T06:10:27.410Z,0.95
2019-01-24T06:12:54.450Z,1.17
2019-01-24T06:15:21.490Z,1.49
2019-01-24T06:17:48.534Z,1.71
2019-01-24T06:20:15.591Z,1.58
2019-01-24T06:22:42.594Z,0.99
2019-01-24T06:25:09.680Z,0.36
2019-01-24T06:27:36.729Z,-0.21
2019-01-24T06:30:04.944Z,-0.63
2019-01-24T06:32:31.981Z,-0.97
2019-01-24T06:34:59.026Z,-1.27
2019-01-24T06:37:26.099Z,-1.56
2019-01-24T06:39:53.154Z,-1.73
2019-01-24T06:42:20.256Z,-1.90
2019-01-24T06:44:47.290Z,-2.08
2019-01-24T06:47:14.356Z,-2.19
2019-01-24T06:49:41.413Z,-1.46
2019-01-24T06:52:08.468Z,-0.12
2019-01-24T06:54:35.507Z,0.18
2019-01-24T06:57:02.547Z,0.36
2019-01-24T06:59:29.595Z,0.65
2019-01-24T07:01:56.611Z,0.40
2019-01-24T07:04:23.685Z,-0.27
2019-01-24T07:06:50.712Z,-0.86
2019-01-24T07:09:17.758Z,-1.31
2019-01-24T07:11:44.795Z,-1.67
2019-01-24T07:14:11.846Z,-1.93
2019-01-24T07:16:38.887Z,-2.08
2019-01-24T07:19:05.945Z,-2.36
2019-01-24T07:21:33.047Z,-2.36
2019-01-24T07:24:00.089Z,-2.32
2019-01-24T07:26:27.145Z,-2.33
2019-01-24T07:28:54.187Z,-2.31
2019-01-24T07:31:21.245Z,-2.30
2019-01-24T07:33:48.306Z,-2.31
2019-01-24T07:36:15.364Z,-2.29
2019-01-24T07:38:42.426Z,-2.27
2019-01-24T07:41:09.451Z,-2.24
2019-01-24T07:43:36.491Z,-2.21
2019-01-24T07:46:03.865Z,-2.20
2019-01-24T07:48:30.916Z,-2.21
2019-01-24T07:50:57.955Z,-2.22
2019-01-24T07:53:25.023Z,-2.20
2019-01-24T07:55:52.063Z,-2.20
2019-01-24T07:58:19.124Z,-2.19
2019-01-24T08:00:46.167Z,-2.17
2019-01-24T08:03:14.215Z,-2.13
2019-01-24T08:05:41.301Z,-2.19
2019-01-24T08:08:08.343Z,-2.23
2019-01-24T08:10:35.426Z,-2.18
2019-01-24T08:13:02.459Z,-2.02
2019-01-24T08:15:29.523Z,-1.88
2019-01-24T08:17:56.573Z,-1.78
2019-01-24T08:20:24.749Z,-1.70
2019-01-24T08:22:51.781Z,-1.67
2019-01-24T08:25:18.813Z,-1.38
2019-01-24T08:27:45.877Z,-1.32
2019-01-24T08:30:17.864Z,-1.34
2019-01-24T08:32:44.913Z,-1.35
2019-01-24T08:35:11.958Z,-1.18
2019-01-24T08:37:39.020Z,-1.11
2019-01-24T08:40:07.168Z,-0.98
2019-01-24T08:42:34.215Z,-1.00
2019-01-24T08:45:01.268Z,-1.14
2019-01-24T08:47:28.301Z,-1.21
2019-01-24T08:49:55.359Z,-1.26
2019-01-24T08:52:22.418Z,-1.30
2019-01-24T08:54:49.456Z,-1.32
2019-01-24T08:57:16.512Z,-1.30
2019-01-24T08:59:43.560Z,-1.30
2019-01-24T09:02:10.604Z,-1.14
2019-01-24T09:04:37.636Z,-1.14
2019-01-24T09:07:04.707Z,-1.10
2019-01-24T09:09:31.754Z,-1.02
2019-01-24T09:11:58.791Z,-0.94
2019-01-24T09:14:25.838Z,-0.94
2019-01-24T09:16:52.888Z,-0.93
2019-01-24T09:19:19.928Z,-0.90
2019-01-24T09:21:46.976Z,-0.92
2019-01-24T09:24:14.036Z,-0.94
2019-01-24T09:26:41.108Z,-0.94
2019-01-24T09:29:08.164Z,-0.88
2019-01-24T09:31:35.257Z,-0.77
2019-01-24T09:34:02.329Z,-0.70
2019-01-24T09:36:29.565Z,-0.70
2019-01-24T09:38:56.656Z,-0.62
2019-01-24T09:41:23.756Z,-0.59
2019-01-24T09:43:50.805Z,-0.57
2019-01-24T09:46:17.846Z,-0.55
2019-01-24T09:48:44.911Z,-0.60
2019-01-24T09:51:11.969Z,-0.53
2019-01-24T09:53:39.043Z,-0.55
2019-01-24T09:56:06.085Z,-0.55
2019-01-24T09:58:33.142Z,-0.57
2019-01-24T10:01:00.210Z,-0.51
2019-01-24T10:03:27.281Z,-0.46
2019-01-24T10:05:54.339Z,-0.40
2019-01-24T10:08:21.412Z,-0.37
2019-01-24T10:10:48.470Z,-0.32
2019-01-24T10:13:15.525Z,-0.28
2019-01-24T10:15:42.578Z,-0.24
2019-01-24T10:18:09.640Z,-0.18
2019-01-24T10:20:36.690Z,-0.16
2019-01-24T10:23:04.060Z,-0.14
2019-01-24T10:25:38.169Z,-0.15
2019-01-24T10:28:05.594Z,-0.18
2019-01-24T10:30:32.655Z,-0.18
2019-01-24T10:32:59.820Z,-0.19
2019-01-24T10:35:26.915Z,-0.21
2019-01-24T10:37:54.052Z,-0.24
2019-01-24T10:40:23.161Z,-0.30
2019-01-24T10:42:50.170Z,-0.32
2019-01-24T10:45:17.958Z,-0.37
2019-01-24T10:47:45.303Z,-0.41
2019-01-24T10:50:13.656Z,-0.44
2019-01-24T10:52:40.706Z,-0.48
2019-01-24T10:55:13.587Z,-0.47
2019-01-24T10:57:38.332Z,-0.41
2019-01-24T11:00:09.028Z,-0.36
2019-01-24T11:02:36.097Z,-0.28
2019-01-24T11:05:03.677Z,-0.21
2019-01-24T11:07:30.763Z,-0.19
2019-01-24T11:09:57.823Z,-0.16
2019-01-24T11:12:24.887Z,-0.20
2019-01-24T11:14:51.986Z,-0.22
2019-01-24T11:17:18.985Z,-0.22
2019-01-24T11:19:46.057Z,-0.23
2019-01-24T11:22:13.116Z,-0.28
2019-01-24T11:24:40.170Z,-0.32
2019-01-24T11:27:07.222Z,-0.36
2019-01-24T11:29:34.276Z,-0.37
2019-01-24T11:32:01.345Z,-0.37
2019-01-24T11:34:28.432Z,-0.29
2019-01-24T11:36:57.236Z,-0.19
2019-01-24T11:39:24.443Z,-0.13
2019-01-24T11:41:51.498Z,-0.14
2019-01-24T11:44:18.556Z,-0.11
2019-01-24T11:46:45.606Z,-0.12
2019-01-24T11:49:12.669Z,-0.09
2019-01-24T11:51:39.716Z,-0.11
2019-01-24T11:54:06.775Z,-0.12
2019-01-24T11:56:33.860Z,-0.18
2019-01-24T11:59:00.882Z,-0.26
2019-01-24T12:01:27.925Z,-0.34
2019-01-24T12:03:55.009Z,-0.37
2019-01-24T12:06:23.364Z,-0.26
2019-01-24T12:08:50.427Z,-0.26
2019-01-24T12:11:17.463Z,-0.30
2019-01-24T12:13:44.531Z,-0.24
2019-01-24T12:16:11.598Z,-0.16
2019-01-24T12:19:17.599Z,-0.15
2019-01-24T12:21:44.667Z,-0.08
2019-01-24T12:24:11.720Z,0.09
2019-01-24T12:26:38.784Z,0.21
2019-01-24T12:29:05.827Z,0.21
2019-01-24T12:31:32.892Z,0.19
2019-01-24T12:33:59.989Z,0.10
2019-01-24T12:36:27.025Z,0.08
2019-01-24T12:38:54.083Z,0.14
2019-01-24T12:41:21.127Z,0.21
2019-01-24T12:43:48.144Z,0.24
2019-01-24T12:46:15.203Z,0.21
2019-01-24T12:48:42.255Z,0.19
2019-01-24T12:51:09.289Z,0.16
2019-01-24T12:53:36.354Z,0.15
2019-01-24T12:56:03.451Z,0.06
2019-01-24T12:58:30.497Z,-0.04
2019-01-24T13:00:57.574Z,-0.12
2019-01-24T13:03:24.621Z,-0.17
2019-01-24T13:05:51.668Z,-0.28
2019-01-24T13:08:18.692Z,-0.26
2019-01-24T13:10:45.740Z,-0.18
2019-01-24T13:13:12.797Z,-0.12
2019-01-24T13:15:39.836Z,-0.15
2019-01-24T13:18:06.926Z,-0.23
2019-01-24T13:20:33.935Z,-0.30
2019-01-24T13:23:00.978Z,-0.32
2019-01-24T13:25:30.010Z,-0.32
2019-01-24T13:27:57.076Z,-0.25
2019-01-24T13:30:26.053Z,-0.17
2019-01-24T13:32:53.119Z,-0.12
2019-01-24T13:35:20.509Z,-0.13
2019-01-24T13:37:47.578Z,-0.25
2019-01-24T13:40:16.758Z,-0.20
2019-01-24T13:42:43.835Z,0.13
2019-01-24T13:45:12.650Z,0.31
2019-01-24T13:47:39.699Z,0.36
2019-01-24T13:50:08.815Z,0.28
2019-01-24T13:52:35.854Z,0.13
2019-01-24T13:55:03.325Z,0.01
2019-01-24T13:57:30.364Z,-0.01
2019-01-24T13:59:57.414Z,0.00
2019-01-24T14:02:24.472Z,-0.02
2019-01-24T14:04:51.518Z,-0.11
2019-01-24T14:07:18.637Z,-0.17
2019-01-24T14:09:45.715Z,-0.11
2019-01-24T14:12:12.767Z,-0.09
2019-01-24T14:14:39.822Z,-0.04
2019-01-24T14:17:06.858Z,0.05
2019-01-24T14:19:33.897Z,0.14
2019-01-24T14:22:00.968Z,0.16
2019-01-24T14:24:28.017Z,0.12
2019-01-24T14:26:55.071Z,0.11
2019-01-24T14:29:22.111Z,0.08
2019-01-24T14:31:49.190Z,-0.01
2019-01-24T14:34:16.234Z,-0.05
2019-01-24T14:36:43.510Z,-0.03
2019-01-24T14:39:10.580Z,-0.01
2019-01-24T14:41:37.641Z,-0.03
2019-01-24T14:44:04.713Z,-0.05
2019-01-24T14:46:31.775Z,-0.04
2019-01-24T14:48:58.880Z,-0.03
2019-01-24T14:51:25.920Z,0.00
2019-01-24T14:53:52.985Z,0.01
2019-01-24T14:56:20.051Z,-0.03
2019-01-24T14:58:47.097Z,-0.08
2019-01-24T15:01:20.195Z,-0.20
2019-01-24T15:03:47.261Z,-0.35
2019-01-24T15:06:14.325Z,-0.44
2019-01-24T15:08:41.391Z,-0.56
2019-01-24T15:11:08.454Z,-0.70
2019-01-24T15:13:35.490Z,-0.80
2019-01-24T15:16:02.966Z,-0.89
2019-01-24T15:18:30.032Z,-0.94
2019-01-24T15:20:57.093Z,-0.97
2019-01-24T15:23:24.144Z,-1.02
2019-01-24T15:25:51.204Z,-1.05
2019-01-24T15:28:18.273Z,-1.05
2019-01-24T15:30:45.377Z,-1.05
2019-01-24T15:33:12.442Z,-0.96
2019-01-24T15:35:39.516Z,-0.96
2019-01-24T15:38:06.618Z,-0.89
2019-01-24T15:40:33.695Z,-0.89
2019-01-24T15:43:00.938Z,-0.89
2019-01-24T15:45:28.105Z,-0.94
2019-01-24T15:47:55.435Z,-0.94
2019-01-24T15:50:22.837Z,-0.98
2019-01-24T15:52:49.945Z,-0.98
2019-01-24T15:55:17.204Z,-0.99
2019-01-24T15:57:44.413Z,-0.99
2019-01-24T16:00:16.946Z,-1.05
2019-01-24T16:02:44.002Z,-1.14
2019-01-24T16:05:11.095Z,-1.14
2019-01-24T16:07:38.169Z,-1.24
2019-01-24T16:10:06.830Z,-1.28
2019-01-24T16:12:33.894Z,-1.28
2019-01-24T16:15:01.003Z,-0.86
2019-01-24T16:17:28.103Z,-0.18
2019-01-24T16:19:55.156Z,0.46
2019-01-24T16:22:22.235Z,0.96
2019-01-24T16:24:49.298Z,1.40
2019-01-24T16:27:16.350Z,1.77
2019-01-24T16:29:43.433Z,2.08
2019-01-24T16:32:10.557Z,2.26
2019-01-24T16:34:37.675Z,2.41
2019-01-24T16:37:04.744Z,2.38
2019-01-24T16:39:31.828Z,2.42
2019-01-24T16:41:58.900Z,2.48
2019-01-24T16:44:25.987Z,2.37
2019-01-24T16:46:53.118Z,2.35
2019-01-24T16:49:20.343Z,2.46
2019-01-24T16:51:47.460Z,2.53
2019-01-24T16:54:14.529Z,2.50
2019-01-24T16:56:41.926Z,2.26
2019-01-24T16:59:09.013Z,1.83
2019-01-24T17:01:36.079Z,1.39
2019-01-24T17:04:03.534Z,1.01
2019-01-24T17:06:30.673Z,0.69
2019-01-24T17:08:57.789Z,0.43
2019-01-24T17:11:24.935Z,0.23
2019-01-24T17:13:52.048Z,0.05
2019-01-24T17:16:21.205Z,-0.11
2019-01-24T17:18:48.305Z,-0.27
2019-01-24T17:21:15.460Z,-0.45
2019-01-24T17:23:42.565Z,-0.62
2019-01-24T17:26:09.699Z,-0.75
2019-01-24T17:28:36.804Z,-0.85
2019-01-24T17:31:04.251Z,-0.90
2019-01-24T17:33:32.796Z,-0.93
2019-01-24T17:35:59.938Z,-0.99
2019-01-24T17:38:27.074Z,-1.04
2019-01-24T17:40:54.423Z,-1.07
2019-01-24T17:43:21.557Z,-1.09
2019-01-24T17:45:48.705Z,-1.11
2019-01-24T17:48:16.162Z,-1.20
2019-01-24T17:50:43.603Z,-1.25
2019-01-24T17:53:10.752Z,-1.25
2019-01-24T17:55:40.506Z,-1.29
2019-01-24T17:58:09.758Z,-1.31
2019-01-24T18:00:39.379Z,-1.37
2019-01-24T18:03:06.525Z,-1.41
2019-01-24T18:05:35.146Z,-1.45
2019-01-24T18:08:02.259Z,-1.51
2019-01-24T18:10:29.745Z,-1.43
2019-01-24T18:12:57.165Z,-1.43
2019-01-24T18:15:30.393Z,-1.46
2019-01-24T18:17:57.528Z,-1.46
2019-01-24T18:20:29.466Z,-1.45
2019-01-24T18:22:56.662Z,-1.47
2019-01-24T18:25:23.862Z,-1.46
2019-01-24T18:27:51.031Z,-1.46
2019-01-24T18:30:21.477Z,-1.46
2019-01-24T18:32:49.006Z,-1.45
2019-01-24T18:35:16.517Z,-1.45
2019-01-24T18:37:44.180Z,-1.45
2019-01-24T18:40:14.909Z,-1.43
2019-01-24T18:42:45.046Z,-1.42
2019-01-24T18:45:15.134Z,-1.42
2019-01-24T18:47:42.402Z,-1.43
2019-01-24T18:50:14.189Z,-1.45
2019-01-24T18:52:41.718Z,-1.46
2019-01-24T18:55:17.597Z,-1.50
2019-01-24T18:57:47.876Z,-1.53
2019-01-24T19:00:20.659Z,-1.54
2019-01-24T19:02:48.811Z,-1.53
2019-01-24T19:05:16.405Z,-1.55
2019-01-24T19:07:46.298Z,-1.56
2019-01-24T19:10:14.207Z,-1.61
2019-01-24T19:12:41.602Z,-1.63
2019-01-24T19:15:13.629Z,-1.63
2019-01-24T19:17:41.235Z,-1.59
2019-01-24T19:20:09.941Z,-1.42
2019-01-24T19:22:37.607Z,-1.30
2019-01-24T19:25:06.502Z,-1.28
2019-01-24T19:27:33.888Z,-1.30
2019-01-24T19:30:02.668Z,-1.35
2019-01-24T19:32:30.049Z,-1.38
2019-01-24T19:35:06.408Z,-1.41
2019-01-24T19:37:34.632Z,-1.43
2019-01-24T19:40:04.860Z,-1.49
2019-01-24T19:42:32.670Z,-1.59
2019-01-24T19:45:01.477Z,-1.64
2019-01-24T19:47:29.096Z,-1.68
2019-01-24T19:49:57.113Z,-1.70
2019-01-24T19:52:29.296Z,-1.72
2019-01-24T19:54:56.770Z,-1.73
2019-01-24T19:57:24.903Z,-1.73
2019-01-24T19:59:52.532Z,-1.73
2019-01-24T20:02:21.827Z,-1.72
2019-01-24T20:04:49.370Z,-1.70
2019-01-24T20:07:18.657Z,-1.70
2019-01-24T20:09:50.043Z,-1.71
2019-01-24T20:12:21.910Z,-1.78
2019-01-24T20:14:49.894Z,-1.78
2019-01-24T20:17:21.591Z,-1.81
2019-01-24T20:19:51.259Z,-1.85
2019-01-24T20:22:18.642Z,-1.89
2019-01-24T20:24:46.325Z,-1.84
2019-01-24T20:27:16.310Z,-1.76
2019-01-24T20:29:43.821Z,-1.66
2019-01-24T20:32:13.478Z,-1.59
2019-01-24T20:34:41.414Z,-1.54
2019-01-24T20:37:11.686Z,-1.52
2019-01-24T20:39:40.292Z,-1.57
2019-01-24T20:42:07.840Z,-1.61
2019-01-24T20:44:35.083Z,-1.65
2019-01-24T20:47:05.031Z,-1.72
2019-01-24T20:49:32.652Z,-1.78
2019-01-24T20:52:03.268Z,-1.82
2019-01-24T20:54:32.840Z,-1.87
2019-01-24T20:57:00.613Z,-1.91
2019-01-24T20:59:27.808Z,-1.98
2019-01-24T21:01:55.299Z,-2.05
2019-01-24T21:04:22.549Z,-2.10
2019-01-24T21:06:49.681Z,-2.13
2019-01-24T21:09:17.101Z,-2.13
2019-01-24T21:11:44.247Z,-2.16
2019-01-24T21:14:12.959Z,-2.18
2019-01-24T21:16:42.009Z,-2.20
2019-01-24T21:19:09.158Z,-2.19
2019-01-24T21:21:36.303Z,-2.19
2019-01-24T21:24:03.754Z,-2.18
2019-01-24T21:26:30.894Z,-2.16
2019-01-24T21:28:58.002Z,-2.16
2019-01-24T21:31:25.111Z,-2.16
2019-01-24T21:33:52.583Z,-2.17
2019-01-24T21:36:22.535Z,-2.23
2019-01-24T21:38:49.698Z,-2.24
2019-01-24T21:41:16.858Z,-2.31
2019-01-24T21:43:43.995Z,-2.36
2019-01-24T21:46:11.113Z,-2.40
2019-01-24T21:48:38.208Z,-2.42
2019-01-24T21:51:11.198Z,-2.45
2019-01-24T21:53:34.333Z,-2.45
2019-01-24T21:56:01.420Z,-2.47
2019-01-24T21:58:28.530Z,-2.50
2019-01-24T22:00:55.640Z,-2.50
2019-01-24T22:03:22.741Z,-2.56
2019-01-24T22:05:49.860Z,-2.62
2019-01-24T22:08:16.957Z,-2.67
2019-01-24T22:10:44.037Z,-2.69
2019-01-24T22:13:11.159Z,-2.71
2019-01-24T22:15:38.251Z,-2.71
2019-01-24T22:18:05.620Z,-2.75
2019-01-24T22:20:32.711Z,-2.78
2019-01-24T22:22:59.770Z,-2.81
2019-01-24T22:25:29.104Z,-2.82
2019-01-24T22:27:56.188Z,-2.83
2019-01-24T22:30:27.620Z,-2.83
2019-01-24T22:32:54.790Z,-2.84
2019-01-24T22:35:21.853Z,-2.84
2019-01-24T22:37:48.910Z,-2.86
2019-01-24T22:40:16.195Z,-2.87
2019-01-24T22:42:43.252Z,-2.89
2019-01-24T22:45:16.275Z,-2.89
2019-01-24T22:47:43.315Z,-2.88
2019-01-24T22:50:11.393Z,-2.89
2019-01-24T22:52:38.442Z,-2.91
2019-01-24T22:55:05.716Z,-2.92
2019-01-24T22:57:32.739Z,-2.93
2019-01-24T22:59:59.791Z,-2.94
2019-01-24T23:02:29.229Z,-2.94
2019-01-24T23:04:56.252Z,-2.96
2019-01-24T23:07:23.316Z,-2.97
2019-01-24T23:09:50.372Z,-2.96
2019-01-24T23:12:17.414Z,-2.94
2019-01-24T23:14:44.446Z,-2.94
2019-01-24T23:17:11.478Z,-2.92
2019-01-24T23:19:38.515Z,-2.94
2019-01-24T23:22:05.571Z,-2.94
2019-01-24T23:24:32.645Z,-2.96
2019-01-24T23:26:59.675Z,-2.96
2019-01-24T23:29:26.763Z,-2.95
2019-01-24T23:31:53.842Z,-2.97
2019-01-24T23:34:20.917Z,-2.97
2019-01-24T23:36:47.920Z,-2.98
2019-01-24T23:39:14.943Z,-3.01
2019-01-24T23:41:41.955Z,-3.04
2019-01-24T23:44:08.952Z,-3.05
2019-01-24T23:46:35.959Z,-3.07
2019-01-24T23:49:02.992Z,-3.09
2019-01-24T23:51:30.029Z,-3.10
2019-01-24T23:53:57.109Z,-3.09
2019-01-24T23:56:24.112Z,-3.07
2019-01-24T23:58:51.101Z,-3.05
